Emmons, New York
Current Conditions -  °F | °C
As of 7:15 PM on Wednesday 26 Nov 2014 (Local Time) from KNY0 Reporting Station
Overcast Overcast  
Wind Chill: 29°   Ceiling: 600
Heat Index: 29°   Visibility: 1.7mi
Dew Point: 28°   Wind: 3mph
Humidity: 96%   Direction: 290°WNW
Pressure: 29.96"   Gusts: NA
Location:  42.4787°N, 75.0181°W
Report Text: KNY0 270015Z AUTO 29003KT 1 3/4SM BKN006 OVC013 M02/M02 A2996 RMK AO2 P0001 T10161022
Loading
Personal Weather Stations






























Interactive Weather Map New forecast layout! Learn more

10-Day Weather Forecast

Advertisements
Track Severe Weather on mobile